createdAt,value
2023-03-02T00:02:56.534Z,60.90
2023-03-02T00:06:06.629Z,59.30
2023-03-02T00:08:59.353Z,61.00
2023-03-02T00:12:22.790Z,64.40
2023-03-02T00:15:42.669Z,67.50
2023-03-02T00:18:36.573Z,64.30
2023-03-02T00:21:27.799Z,64.50
2023-03-02T00:24:19.544Z,68.10
2023-03-02T00:27:51.119Z,59.50
2023-03-02T00:31:40.521Z,57.40
2023-03-02T00:34:19.622Z,65.40
2023-03-02T00:37:11.438Z,53.40
2023-03-02T00:40:43.167Z,51.80
2023-03-02T00:43:38.060Z,63.80
2023-03-02T00:46:16.815Z,53.70
2023-03-02T00:49:48.380Z,46.50
2023-03-02T00:52:24.481Z,45.60
2023-03-02T00:55:39.353Z,40.70
2023-03-02T00:58:53.843Z,44.10
2023-03-02T01:01:31.310Z,41.10
2023-03-02T01:04:25.123Z,42.00
2023-03-02T01:07:39.029Z,37.80
2023-03-02T01:10:38.827Z,37.60
2023-03-02T01:13:30.452Z,35.70
2023-03-02T01:16:53.116Z,38.30
2023-03-02T01:20:22.628Z,38.10
2023-03-02T01:23:41.878Z,37.80
2023-03-02T01:26:30.938Z,36.50
2023-03-02T01:29:42.348Z,35.70
2023-03-02T01:32:54.309Z,37.80
2023-03-02T01:36:43.505Z,37.60
2023-03-02T01:39:55.601Z,42.20
2023-03-02T01:42:42.628Z,43.50
2023-03-02T01:46:12.194Z,44.20
2023-03-02T01:49:42.140Z,41.10
2023-03-02T01:53:15.281Z,36.50
2023-03-02T01:56:24.551Z,35.10
2023-03-02T01:59:45.208Z,33.60
2023-03-02T02:02:19.265Z,31.90
2023-03-02T02:04:55.091Z,32.60
2023-03-02T02:07:29.193Z,34.40
2023-03-02T02:10:21.634Z,33.80
2023-03-02T02:13:35.772Z,31.70
2023-03-02T02:16:35.874Z,31.50
2023-03-02T02:19:30.464Z,35.50
2023-03-02T02:23:06.595Z,35.10
2023-03-02T02:26:12.013Z,30.80
2023-03-02T02:29:31.928Z,32.90
2023-03-02T02:32:32.171Z,32.30
2023-03-02T02:35:39.002Z,30.90
2023-03-02T02:39:10.665Z,32.90
2023-03-02T02:42:07.043Z,26.00
2023-03-02T02:45:28.453Z,33.10
2023-03-02T02:48:17.955Z,34.10
2023-03-02T02:51:06.526Z,31.80
2023-03-02T02:54:37.703Z,37.70
2023-03-02T02:57:31.592Z,34.80
2023-03-02T03:01:00.678Z,31.20
2023-03-02T03:03:59.944Z,33.30
2023-03-02T03:07:06.834Z,31.50
2023-03-02T03:09:47.699Z,24.50
2023-03-02T03:13:24.757Z,33.00
2023-03-02T03:16:03.875Z,31.70
2023-03-02T03:19:06.644Z,29.00
2023-03-02T03:25:16.938Z,29.80
2023-03-02T03:28:18.233Z,29.30
2023-03-02T03:31:20.551Z,30.40
2023-03-02T03:34:20.436Z,34.30
2023-03-02T03:37:50.487Z,31.20
2023-03-02T03:40:39.852Z,32.90
2023-03-02T03:43:40.513Z,33.10
2023-03-02T03:46:36.818Z,48.60
2023-03-02T03:49:37.237Z,57.10
2023-03-02T03:52:46.099Z,51.30
2023-03-02T03:56:35.478Z,44.80
2023-03-02T04:00:06.159Z,36.90
2023-03-02T04:03:35.041Z,36.60
2023-03-02T04:06:37.962Z,30.30
2023-03-02T04:09:47.623Z,33.70
2023-03-02T04:12:36.131Z,31.30
2023-03-02T04:15:33.921Z,33.10
2023-03-02T04:18:52.601Z,28.60
2023-03-02T04:22:06.071Z,28.60
2023-03-02T04:24:57.925Z,32.20
2023-03-02T04:28:00.731Z,35.70
2023-03-02T04:31:15.443Z,43.10
2023-03-02T04:37:41.733Z,44.20
2023-03-02T04:41:23.418Z,41.20
2023-03-02T04:44:35.436Z,42.00
2023-03-02T04:47:33.829Z,45.40
2023-03-02T04:50:15.191Z,42.50
2023-03-02T04:53:13.520Z,38.40
2023-03-02T04:56:05.006Z,37.90
2023-03-02T04:59:06.888Z,33.70
2023-03-02T05:02:56.059Z,36.20
2023-03-02T05:05:47.693Z,34.60
2023-03-02T05:09:04.789Z,34.00
2023-03-02T05:12:13.602Z,30.00
2023-03-02T05:14:55.366Z,28.90
2023-03-02T05:17:35.249Z,31.30
2023-03-02T05:20:37.785Z,31.80
2023-03-02T05:23:25.581Z,30.70
2023-03-02T05:26:44.269Z,28.80
2023-03-02T05:29:33.326Z,31.10
2023-03-02T05:32:26.598Z,34.80
2023-03-02T05:35:07.937Z,31.80
2023-03-02T05:38:16.999Z,34.90
2023-03-02T05:40:53.488Z,35.60
2023-03-02T05:43:27.246Z,35.00
2023-03-02T05:46:22.141Z,35.50
2023-03-02T05:49:05.011Z,40.20
2023-03-02T05:51:58.920Z,36.90
2023-03-02T05:54:49.870Z,39.50
2023-03-02T05:57:38.345Z,38.20
2023-03-02T06:00:08.657Z,38.30
2023-03-02T06:05:51.068Z,42.50
2023-03-02T06:08:43.478Z,43.80
2023-03-02T06:11:18.003Z,50.00
2023-03-02T06:14:12.657Z,49.20
2023-03-02T06:16:52.167Z,55.90
2023-03-02T06:19:43.516Z,68.80
2023-03-02T06:22:32.049Z,91.90
2023-03-02T06:25:25.100Z,90.70
2023-03-02T06:28:22.153Z,82.00
2023-03-02T06:30:51.336Z,78.60
2023-03-02T06:33:30.447Z,82.00
2023-03-02T06:36:28.881Z,87.00
2023-03-02T06:39:19.013Z,88.10
2023-03-02T06:42:48.100Z,73.80
2023-03-02T06:45:38.238Z,79.90
2023-03-02T06:48:12.199Z,82.90
2023-03-02T06:50:53.508Z,84.20
2023-03-02T06:54:24.049Z,85.60
2023-03-02T06:57:22.108Z,84.40
2023-03-02T07:00:11.008Z,90.40
2023-03-02T07:02:47.325Z,88.00
2023-03-02T07:05:50.116Z,85.90
2023-03-02T07:08:21.722Z,81.80
2023-03-02T07:11:43.825Z,76.00
2023-03-02T07:26:28.087Z,75.00
2023-03-02T07:28:59.360Z,75.90
2023-03-02T07:31:27.881Z,71.40
2023-03-02T07:34:21.369Z,72.80
2023-03-02T07:37:08.009Z,77.50
2023-03-02T07:40:00.796Z,73.40
2023-03-02T07:42:47.114Z,72.70
2023-03-02T07:45:21.467Z,74.00
2023-03-02T07:48:13.242Z,78.30
2023-03-02T07:50:41.802Z,84.40
2023-03-02T07:53:13.372Z,75.00
2023-03-02T07:55:54.762Z,75.00
2023-03-02T07:59:33.832Z,78.50
2023-03-02T08:02:39.775Z,80.50
2023-03-02T08:05:18.519Z,76.40
2023-03-02T08:07:47.494Z,76.20
2023-03-02T08:10:39.664Z,75.30
2023-03-02T08:13:33.954Z,77.40
2023-03-02T08:16:23.142Z,74.60
2023-03-02T08:18:54.612Z,69.20
2023-03-02T08:21:49.323Z,73.70
2023-03-02T08:24:41.770Z,75.80
2023-03-02T08:27:17.959Z,69.40
2023-03-02T08:29:59.040Z,75.10
2023-03-02T08:32:27.832Z,72.30
2023-03-02T08:35:34.168Z,70.60
2023-03-02T08:38:45.700Z,68.40
2023-03-02T08:42:26.163Z,60.30
2023-03-02T08:45:53.122Z,67.80
2023-03-02T08:48:57.695Z,71.20
2023-03-02T08:51:57.190Z,74.20
2023-03-02T08:55:06.900Z,78.30
2023-03-02T08:57:49.753Z,79.60
2023-03-02T09:00:44.744Z,81.00
2023-03-02T09:03:56.184Z,84.20
2023-03-02T09:06:47.324Z,90.30
2023-03-02T09:09:59.996Z,96.20
2023-03-02T09:13:16.815Z,102.10
2023-03-02T09:16:27.463Z,98.00
2023-03-02T09:19:44.513Z,100.60
2023-03-02T09:23:07.982Z,96.50
2023-03-02T09:26:16.922Z,93.50
2023-03-02T09:29:26.127Z,93.00
2023-03-02T09:33:05.251Z,88.20
2023-03-02T09:35:55.961Z,79.80
2023-03-02T09:39:09.472Z,82.00
2023-03-02T09:45:41.256Z,71.70
2023-03-02T09:49:20.050Z,65.50
2023-03-02T09:52:16.508Z,53.40
2023-03-02T09:55:25.523Z,38.30
2023-03-02T09:58:44.990Z,37.70
2023-03-02T10:01:55.222Z,37.60
2023-03-02T10:05:03.137Z,37.50
2023-03-02T10:08:12.621Z,34.90
2023-03-02T10:11:47.434Z,31.90
2023-03-02T10:15:11.920Z,36.20
2023-03-02T10:19:04.392Z,36.40
2023-03-02T10:22:33.718Z,35.80
2023-03-02T10:25:59.384Z,32.40
2023-03-02T10:29:11.545Z,36.20
2023-03-02T10:43:43.500Z,31.40
2023-03-02T10:47:11.194Z,29.80
2023-03-02T10:49:47.613Z,31.20
2023-03-02T10:52:59.772Z,28.90
2023-03-02T10:56:32.923Z,26.20
2023-03-02T10:59:37.269Z,24.40
2023-03-02T11:02:38.795Z,23.30
2023-03-02T11:05:44.382Z,23.40
2023-03-02T11:08:46.940Z,22.90
2023-03-02T11:11:50.949Z,21.80
2023-03-02T11:14:39.490Z,23.00
2023-03-02T11:17:37.172Z,23.30
2023-03-02T11:21:17.772Z,22.10
2023-03-02T11:24:59.600Z,22.90
2023-03-02T11:28:30.657Z,27.10
2023-03-02T11:31:39.168Z,23.30
2023-03-02T11:35:31.679Z,22.40
2023-03-02T11:39:21.139Z,22.80
2023-03-02T12:19:05.854Z,20.90
2023-03-02T12:22:34.431Z,20.80
2023-03-02T12:26:00.813Z,19.70
2023-03-02T12:29:19.196Z,20.10
2023-03-02T12:36:06.800Z,20.70
2023-03-02T12:41:59.917Z,19.50
2023-03-02T12:48:51.020Z,18.50
2023-03-02T12:51:55.807Z,19.50
2023-03-02T12:54:37.295Z,18.40
2023-03-02T13:04:59.739Z,17.50
2023-03-02T13:08:25.492Z,17.90
2023-03-02T13:11:49.257Z,16.70
2023-03-02T13:14:35.036Z,17.60
2023-03-02T13:18:04.345Z,17.60
2023-03-02T13:21:41.965Z,19.00
2023-03-02T13:29:14.433Z,16.70
2023-03-02T13:32:29.595Z,15.70
2023-03-02T13:35:31.476Z,16.90
2023-03-02T13:39:20.314Z,15.70
2023-03-02T13:43:00.061Z,16.10
2023-03-02T13:46:00.392Z,16.70
2023-03-02T13:48:33.537Z,16.90
2023-03-02T13:59:00.695Z,17.10
2023-03-02T14:01:36.779Z,17.10
2023-03-02T14:04:23.183Z,16.60
2023-03-02T14:07:09.477Z,17.60
2023-03-02T14:09:50.774Z,17.90
2023-03-02T14:12:46.652Z,17.40
2023-03-02T14:16:01.432Z,18.10
2023-03-02T14:19:30.259Z,35.20
2023-03-02T14:23:06.813Z,20.30
2023-03-02T14:25:57.438Z,19.20
2023-03-02T14:29:04.665Z,19.30
2023-03-02T14:32:54.643Z,19.80
2023-03-02T14:36:10.759Z,19.00
2023-03-02T14:39:18.937Z,20.00
2023-03-02T14:42:32.756Z,23.00
2023-03-02T14:45:44.832Z,22.30
2023-03-02T14:48:40.694Z,25.00
2023-03-02T14:52:19.680Z,20.70
2023-03-02T14:55:52.185Z,27.20
2023-03-02T14:59:13.437Z,61.40
2023-03-02T15:02:55.379Z,49.20
2023-03-02T15:06:01.780Z,49.90
2023-03-02T15:08:59.222Z,28.70
2023-03-02T15:12:18.296Z,86.00
2023-03-02T15:15:57.410Z,56.10
2023-03-02T15:18:45.655Z,36.90
2023-03-02T15:21:48.462Z,28.30
2023-03-02T15:24:38.136Z,23.20
2023-03-02T15:27:18.924Z,22.70
2023-03-02T15:29:51.086Z,22.60
2023-03-02T15:32:31.260Z,24.00
2023-03-02T15:35:15.381Z,27.50
2023-03-02T15:38:28.392Z,25.00
2023-03-02T15:45:37.589Z,33.50
2023-03-02T15:48:43.326Z,26.70
2023-03-02T15:51:52.969Z,31.40
2023-03-02T15:57:40.262Z,30.10
2023-03-02T16:00:54.257Z,32.50
2023-03-02T16:03:44.275Z,32.90
2023-03-02T16:07:05.245Z,31.00
2023-03-02T16:10:26.764Z,27.90
2023-03-02T16:13:41.254Z,31.60
2023-03-02T16:17:20.655Z,32.80
2023-03-02T16:20:51.195Z,26.60
2023-03-02T16:24:29.509Z,26.40
2023-03-02T16:27:31.304Z,28.00
2023-03-02T16:31:02.978Z,32.50
2023-03-02T16:33:41.338Z,34.40
2023-03-02T16:36:32.858Z,34.90
2023-03-02T16:39:23.407Z,35.70
2023-03-02T16:42:50.373Z,41.20
2023-03-02T16:46:14.506Z,39.80
2023-03-02T16:49:45.518Z,39.80
2023-03-02T16:53:34.996Z,45.50
2023-03-02T16:57:24.372Z,73.40
2023-03-02T17:00:55.469Z,82.80
2023-03-02T17:04:27.450Z,76.60
2023-03-02T17:08:17.104Z,85.30
2023-03-02T17:11:29.708Z,83.80
2023-03-02T17:18:50.124Z,83.90
2023-03-02T18:08:13.575Z,107.20
2023-03-02T18:18:10.950Z,127.40
2023-03-02T18:21:43.236Z,136.50
2023-03-02T18:25:24.274Z,129.20
2023-03-02T18:28:55.889Z,140.60
2023-03-02T18:32:45.333Z,131.60
2023-03-02T18:36:15.731Z,126.30
2023-03-02T18:46:47.583Z,126.40
2023-03-02T18:50:08.397Z,111.20
2023-03-02T18:53:39.355Z,108.80
2023-03-02T19:03:11.307Z,116.50
2023-03-02T19:06:21.361Z,138.50
2023-03-02T19:09:43.165Z,136.60
2023-03-02T19:13:33.306Z,142.00
2023-03-02T19:17:20.911Z,130.80
2023-03-02T19:19:58.918Z,156.50
2023-03-02T19:23:09.421Z,130.40
2023-03-02T19:30:20.197Z,99.30
2023-03-02T19:33:41.296Z,105.20
2023-03-02T19:40:49.260Z,144.00
2023-03-02T19:43:23.128Z,116.80
2023-03-02T19:46:52.632Z,121.00
2023-03-02T19:49:34.555Z,126.10
2023-03-02T19:52:36.949Z,127.00
2023-03-02T19:55:37.660Z,135.60
2023-03-02T19:59:01.488Z,144.40
2023-03-02T20:02:30.904Z,143.80
2023-03-02T20:05:40.699Z,131.60
2023-03-02T20:09:19.368Z,155.70
2023-03-02T20:12:11.650Z,136.70
2023-03-02T20:15:24.284Z,135.10
2023-03-02T20:19:04.384Z,139.60
2023-03-02T20:22:50.337Z,123.30
2023-03-02T20:26:32.544Z,105.80
2023-03-02T20:30:14.687Z,95.30
2023-03-02T20:33:30.152Z,95.60
2023-03-02T20:37:19.483Z,92.20
2023-03-02T20:40:49.257Z,109.30
2023-03-02T20:44:38.642Z,110.40
2023-03-02T20:48:11.424Z,109.80
2023-03-02T21:10:16.703Z,66.90
2023-03-02T21:13:28.418Z,52.70
2023-03-02T21:16:48.694Z,50.40
2023-03-02T21:20:08.748Z,51.70
2023-03-02T21:23:26.805Z,55.50
2023-03-02T21:26:45.591Z,53.90
2023-03-02T21:30:17.656Z,49.60
2023-03-02T21:34:06.852Z,47.50
2023-03-02T21:37:56.060Z,50.90
2023-03-02T21:41:35.163Z,54.80
2023-03-02T21:45:47.131Z,62.20
2023-03-02T21:49:36.752Z,53.30
2023-03-02T21:53:21.096Z,61.20
2023-03-02T21:56:56.043Z,55.90
2023-03-02T22:00:47.879Z,69.20
2023-03-02T22:04:17.796Z,113.50
2023-03-02T22:22:31.291Z,81.80
2023-03-02T22:26:19.188Z,74.40
2023-03-02T22:30:09.367Z,68.80
2023-03-02T22:33:59.055Z,62.80
2023-03-02T22:37:40.361Z,61.00
2023-03-02T22:41:11.332Z,47.60
2023-03-02T22:44:51.774Z,51.90
2023-03-02T22:48:34.836Z,57.90
2023-03-02T23:04:02.126Z,57.60
2023-03-02T23:07:41.152Z,64.80
2023-03-02T23:11:03.029Z,61.40
2023-03-02T23:15:01.420Z,62.10
2023-03-02T23:18:53.899Z,59.90
2023-03-02T23:22:19.275Z,54.60
2023-03-02T23:25:50.599Z,54.20
2023-03-02T23:29:29.504Z,49.60
2023-03-02T23:44:06.997Z,61.10
